sensor_id;sensor_type;location;lat;lon;timestamp;P1;durP1;ratioP1;P2;durP2;ratioP2
13611;SDS011;6877;51.436;6.774;2023-06-26T00:02:06;12.02;;;8.02;;
13611;SDS011;6877;51.436;6.774;2023-06-26T00:04:32;10.07;;;7.38;;
13611;SDS011;6877;51.436;6.774;2023-06-26T00:06:58;10.00;;;7.50;;
13611;SDS011;6877;51.436;6.774;2023-06-26T00:09:25;11.23;;;7.75;;
13611;SDS011;6877;51.436;6.774;2023-06-26T00:11:51;10.13;;;7.70;;
13611;SDS011;6877;51.436;6.774;2023-06-26T00:14:23;10.23;;;8.05;;
13611;SDS011;6877;51.436;6.774;2023-06-26T00:16:54;9.50;;;7.47;;
13611;SDS011;6877;51.436;6.774;2023-06-26T00:19:26;8.68;;;7.13;;
13611;SDS011;6877;51.436;6.774;2023-06-26T00:21:52;11.02;;;7.88;;
13611;SDS011;6877;51.436;6.774;2023-06-26T00:24:24;11.65;;;8.07;;
13611;SDS011;6877;51.436;6.774;2023-06-26T00:26:50;12.15;;;8.32;;
13611;SDS011;6877;51.436;6.774;2023-06-26T00:29:22;10.27;;;8.45;;
13611;SDS011;6877;51.436;6.774;2023-06-26T00:31:48;11.68;;;7.57;;
13611;SDS011;6877;51.436;6.774;2023-06-26T00:34:20;13.38;;;8.25;;
13611;SDS011;6877;51.436;6.774;2023-06-26T00:36:46;8.75;;;7.47;;
13611;SDS011;6877;51.436;6.774;2023-06-26T00:39:17;9.15;;;8.00;;
13611;SDS011;6877;51.436;6.774;2023-06-26T00:41:49;13.52;;;8.80;;
13611;SDS011;6877;51.436;6.774;2023-06-26T00:44:16;10.65;;;8.68;;
13611;SDS011;6877;51.436;6.774;2023-06-26T00:46:42;9.55;;;7.70;;
13611;SDS011;6877;51.436;6.774;2023-06-26T00:49:13;11.32;;;7.88;;
13611;SDS011;6877;51.436;6.774;2023-06-26T00:51:45;9.15;;;7.30;;
13611;SDS011;6877;51.436;6.774;2023-06-26T00:54:17;10.13;;;7.57;;
13611;SDS011;6877;51.436;6.774;2023-06-26T00:56:51;15.45;;;8.38;;
13611;SDS011;6877;51.436;6.774;2023-06-26T00:59:17;11.05;;;8.57;;
13611;SDS011;6877;51.436;6.774;2023-06-26T01:01:44;12.68;;;8.52;;
13611;SDS011;6877;51.436;6.774;2023-06-26T01:04:10;9.70;;;7.40;;
13611;SDS011;6877;51.436;6.774;2023-06-26T01:06:46;15.77;;;9.43;;
13611;SDS011;6877;51.436;6.774;2023-06-26T01:09:20;10.60;;;8.25;;
13611;SDS011;6877;51.436;6.774;2023-06-26T01:11:54;10.82;;;7.78;;
13611;SDS011;6877;51.436;6.774;2023-06-26T01:14:25;10.75;;;8.27;;
13611;SDS011;6877;51.436;6.774;2023-06-26T01:16:57;10.90;;;8.45;;
13611;SDS011;6877;51.436;6.774;2023-06-26T01:19:31;14.13;;;8.60;;
13611;SDS011;6877;51.436;6.774;2023-06-26T01:24:36;14.07;;;8.77;;
13611;SDS011;6877;51.436;6.774;2023-06-26T01:27:11;11.63;;;8.30;;
13611;SDS011;6877;51.436;6.774;2023-06-26T01:29:43;9.57;;;7.22;;
13611;SDS011;6877;51.436;6.774;2023-06-26T01:32:11;12.95;;;8.43;;
13611;SDS011;6877;51.436;6.774;2023-06-26T01:34:38;12.27;;;8.48;;
13611;SDS011;6877;51.436;6.774;2023-06-26T01:37:04;11.50;;;8.68;;
13611;SDS011;6877;51.436;6.774;2023-06-26T01:39:31;12.68;;;9.07;;
13611;SDS011;6877;51.436;6.774;2023-06-26T01:42:02;12.40;;;8.18;;
13611;SDS011;6877;51.436;6.774;2023-06-26T01:44:35;14.68;;;9.82;;
13611;SDS011;6877;51.436;6.774;2023-06-26T01:47:14;11.65;;;8.93;;
13611;SDS011;6877;51.436;6.774;2023-06-26T01:49:52;12.20;;;8.48;;
13611;SDS011;6877;51.436;6.774;2023-06-26T01:57:42;10.52;;;9.07;;
13611;SDS011;6877;51.436;6.774;2023-06-26T02:00:16;12.77;;;7.75;;
13611;SDS011;6877;51.436;6.774;2023-06-26T02:02:50;12.90;;;9.07;;
13611;SDS011;6877;51.436;6.774;2023-06-26T02:05:18;10.50;;;7.80;;
13611;SDS011;6877;51.436;6.774;2023-06-26T02:07:49;15.07;;;8.13;;
13611;SDS011;6877;51.436;6.774;2023-06-26T02:10:17;10.68;;;7.88;;
13611;SDS011;6877;51.436;6.774;2023-06-26T02:12:43;9.90;;;8.23;;
13611;SDS011;6877;51.436;6.774;2023-06-26T02:15:10;12.95;;;9.05;;
13611;SDS011;6877;51.436;6.774;2023-06-26T02:17:36;11.10;;;8.90;;
13611;SDS011;6877;51.436;6.774;2023-06-26T02:20:03;11.85;;;8.23;;
13611;SDS011;6877;51.436;6.774;2023-06-26T02:22:35;12.23;;;8.88;;
13611;SDS011;6877;51.436;6.774;2023-06-26T02:25:07;13.48;;;9.20;;
13611;SDS011;6877;51.436;6.774;2023-06-26T02:27:38;11.90;;;9.18;;
13611;SDS011;6877;51.436;6.774;2023-06-26T02:30:10;13.88;;;8.93;;
13611;SDS011;6877;51.436;6.774;2023-06-26T02:32:37;11.43;;;8.77;;
13611;SDS011;6877;51.436;6.774;2023-06-26T02:35:08;11.95;;;9.13;;
13611;SDS011;6877;51.436;6.774;2023-06-26T02:37:40;13.95;;;8.68;;
13611;SDS011;6877;51.436;6.774;2023-06-26T02:40:11;13.93;;;9.20;;
13611;SDS011;6877;51.436;6.774;2023-06-26T02:42:37;13.40;;;9.55;;
13611;SDS011;6877;51.436;6.774;2023-06-26T02:45:04;11.27;;;8.93;;
13611;SDS011;6877;51.436;6.774;2023-06-26T02:47:36;12.63;;;9.05;;
13611;SDS011;6877;51.436;6.774;2023-06-26T02:50:10;10.68;;;8.77;;
13611;SDS011;6877;51.436;6.774;2023-06-26T02:52:41;12.15;;;8.98;;
13611;SDS011;6877;51.436;6.774;2023-06-26T02:55:08;13.43;;;8.90;;
13611;SDS011;6877;51.436;6.774;2023-06-26T02:57:35;12.70;;;8.65;;
13611;SDS011;6877;51.436;6.774;2023-06-26T03:00:01;13.13;;;9.13;;
13611;SDS011;6877;51.436;6.774;2023-06-26T03:02:28;12.80;;;8.88;;
13611;SDS011;6877;51.436;6.774;2023-06-26T03:04:54;14.32;;;9.38;;
13611;SDS011;6877;51.436;6.774;2023-06-26T03:07:20;13.10;;;9.30;;
13611;SDS011;6877;51.436;6.774;2023-06-26T03:09:47;12.60;;;8.38;;
13611;SDS011;6877;51.436;6.774;2023-06-26T03:12:13;13.13;;;9.40;;
13611;SDS011;6877;51.436;6.774;2023-06-26T03:14:40;19.50;;;9.98;;
13611;SDS011;6877;51.436;6.774;2023-06-26T03:17:06;18.60;;;9.40;;
13611;SDS011;6877;51.436;6.774;2023-06-26T03:19:38;12.98;;;9.18;;
13611;SDS011;6877;51.436;6.774;2023-06-26T03:22:04;16.08;;;10.85;;
13611;SDS011;6877;51.436;6.774;2023-06-26T03:24:36;21.20;;;10.45;;
13611;SDS011;6877;51.436;6.774;2023-06-26T03:27:07;16.75;;;10.05;;
13611;SDS011;6877;51.436;6.774;2023-06-26T03:29:40;17.75;;;11.73;;
13611;SDS011;6877;51.436;6.774;2023-06-26T03:32:12;26.50;;;13.18;;
13611;SDS011;6877;51.436;6.774;2023-06-26T03:34:43;21.90;;;12.40;;
13611;SDS011;6877;51.436;6.774;2023-06-26T03:37:15;23.65;;;12.45;;
13611;SDS011;6877;51.436;6.774;2023-06-26T03:39:41;27.05;;;12.90;;
13611;SDS011;6877;51.436;6.774;2023-06-26T03:42:12;22.00;;;13.15;;
13611;SDS011;6877;51.436;6.774;2023-06-26T03:44:39;20.85;;;13.50;;
13611;SDS011;6877;51.436;6.774;2023-06-26T03:47:05;24.25;;;12.23;;
13611;SDS011;6877;51.436;6.774;2023-06-26T03:49:32;20.50;;;11.93;;
13611;SDS011;6877;51.436;6.774;2023-06-26T03:52:03;18.55;;;9.55;;
13611;SDS011;6877;51.436;6.774;2023-06-26T03:54:35;15.50;;;9.93;;
13611;SDS011;6877;51.436;6.774;2023-06-26T03:57:01;18.88;;;9.48;;
13611;SDS011;6877;51.436;6.774;2023-06-26T03:59:33;15.50;;;9.52;;
13611;SDS011;6877;51.436;6.774;2023-06-26T04:02:04;15.00;;;9.48;;
13611;SDS011;6877;51.436;6.774;2023-06-26T04:04:31;15.68;;;9.20;;
13611;SDS011;6877;51.436;6.774;2023-06-26T04:07:02;9.38;;;7.50;;
13611;SDS011;6877;51.436;6.774;2023-06-26T04:09:34;10.18;;;7.15;;
13611;SDS011;6877;51.436;6.774;2023-06-26T04:12:05;12.98;;;7.32;;
13611;SDS011;6877;51.436;6.774;2023-06-26T04:14:37;11.30;;;7.63;;
13611;SDS011;6877;51.436;6.774;2023-06-26T04:17:08;12.38;;;7.18;;
13611;SDS011;6877;51.436;6.774;2023-06-26T04:19:35;10.85;;;6.57;;
13611;SDS011;6877;51.436;6.774;2023-06-26T04:22:02;10.80;;;6.50;;
13611;SDS011;6877;51.436;6.774;2023-06-26T04:24:29;10.82;;;6.53;;
13611;SDS011;6877;51.436;6.774;2023-06-26T04:26:55;8.25;;;6.05;;
13611;SDS011;6877;51.436;6.774;2023-06-26T04:29:30;18.80;;;7.60;;
13611;SDS011;6877;51.436;6.774;2023-06-26T04:32:01;11.35;;;6.43;;
13611;SDS011;6877;51.436;6.774;2023-06-26T04:34:32;10.85;;;7.22;;
13611;SDS011;6877;51.436;6.774;2023-06-26T04:37:01;9.52;;;6.40;;
13611;SDS011;6877;51.436;6.774;2023-06-26T04:39:35;9.82;;;6.45;;
13611;SDS011;6877;51.436;6.774;2023-06-26T04:42:03;11.63;;;5.93;;
13611;SDS011;6877;51.436;6.774;2023-06-26T04:44:31;15.68;;;8.20;;
13611;SDS011;6877;51.436;6.774;2023-06-26T04:46:58;16.42;;;9.98;;
13611;SDS011;6877;51.436;6.774;2023-06-26T04:49:30;24.63;;;13.38;;
13611;SDS011;6877;51.436;6.774;2023-06-26T04:52:01;18.25;;;11.57;;
13611;SDS011;6877;51.436;6.774;2023-06-26T04:54:34;19.15;;;10.43;;
13611;SDS011;6877;51.436;6.774;2023-06-26T04:57:00;18.58;;;10.68;;
13611;SDS011;6877;51.436;6.774;2023-06-26T04:59:31;27.83;;;9.65;;
13611;SDS011;6877;51.436;6.774;2023-06-26T05:01:58;13.15;;;8.93;;
13611;SDS011;6877;51.436;6.774;2023-06-26T05:04:24;14.43;;;8.75;;
13611;SDS011;6877;51.436;6.774;2023-06-26T05:06:51;11.25;;;8.70;;
13611;SDS011;6877;51.436;6.774;2023-06-26T05:09:22;15.27;;;8.45;;
13611;SDS011;6877;51.436;6.774;2023-06-26T05:11:53;16.90;;;8.18;;
13611;SDS011;6877;51.436;6.774;2023-06-26T05:14:20;16.08;;;9.15;;
13611;SDS011;6877;51.436;6.774;2023-06-26T05:16:51;14.20;;;8.23;;
13611;SDS011;6877;51.436;6.774;2023-06-26T05:19:18;13.18;;;7.97;;
13611;SDS011;6877;51.436;6.774;2023-06-26T05:21:49;16.15;;;9.55;;
13611;SDS011;6877;51.436;6.774;2023-06-26T05:24:17;12.93;;;8.23;;
13611;SDS011;6877;51.436;6.774;2023-06-26T05:26:45;12.60;;;7.75;;
13611;SDS011;6877;51.436;6.774;2023-06-26T05:29:12;13.68;;;7.15;;
13611;SDS011;6877;51.436;6.774;2023-06-26T05:31:43;10.60;;;6.70;;
13611;SDS011;6877;51.436;6.774;2023-06-26T05:34:16;11.00;;;6.90;;
13611;SDS011;6877;51.436;6.774;2023-06-26T05:36:51;10.70;;;6.65;;
13611;SDS011;6877;51.436;6.774;2023-06-26T05:39:18;8.02;;;4.88;;
13611;SDS011;6877;51.436;6.774;2023-06-26T05:41:49;10.15;;;5.50;;
13611;SDS011;6877;51.436;6.774;2023-06-26T05:44:16;9.45;;;5.20;;
13611;SDS011;6877;51.436;6.774;2023-06-26T05:46:43;12.93;;;6.28;;
13611;SDS011;6877;51.436;6.774;2023-06-26T05:49:10;11.15;;;6.32;;
13611;SDS011;6877;51.436;6.774;2023-06-26T05:51:36;8.38;;;5.40;;
13611;SDS011;6877;51.436;6.774;2023-06-26T05:54:03;15.55;;;6.22;;
13611;SDS011;6877;51.436;6.774;2023-06-26T05:56:35;10.90;;;5.82;;
13611;SDS011;6877;51.436;6.774;2023-06-26T05:59:06;13.07;;;5.10;;
13611;SDS011;6877;51.436;6.774;2023-06-26T06:01:39;12.27;;;5.93;;
13611;SDS011;6877;51.436;6.774;2023-06-26T06:04:06;13.02;;;5.20;;
13611;SDS011;6877;51.436;6.774;2023-06-26T06:06:32;12.07;;;6.35;;
13611;SDS011;6877;51.436;6.774;2023-06-26T06:08:58;13.77;;;6.07;;
13611;SDS011;6877;51.436;6.774;2023-06-26T06:11:25;9.40;;;5.43;;
13611;SDS011;6877;51.436;6.774;2023-06-26T06:13:51;14.85;;;5.95;;
13611;SDS011;6877;51.436;6.774;2023-06-26T06:16:18;10.57;;;5.95;;
13611;SDS011;6877;51.436;6.774;2023-06-26T06:18:49;11.60;;;6.00;;
13611;SDS011;6877;51.436;6.774;2023-06-26T06:21:20;14.98;;;6.00;;
13611;SDS011;6877;51.436;6.774;2023-06-26T06:23:47;17.27;;;5.57;;
13611;SDS011;6877;51.436;6.774;2023-06-26T06:26:18;15.00;;;7.85;;
13611;SDS011;6877;51.436;6.774;2023-06-26T06:28:50;13.20;;;6.70;;
13611;SDS011;6877;51.436;6.774;2023-06-26T06:31:16;10.60;;;6.00;;
13611;SDS011;6877;51.436;6.774;2023-06-26T06:33:48;18.05;;;5.65;;
13611;SDS011;6877;51.436;6.774;2023-06-26T06:36:14;11.00;;;5.35;;
13611;SDS011;6877;51.436;6.774;2023-06-26T06:38:45;14.05;;;6.00;;
13611;SDS011;6877;51.436;6.774;2023-06-26T06:41:17;14.05;;;5.85;;
13611;SDS011;6877;51.436;6.774;2023-06-26T06:43:48;10.70;;;5.15;;
13611;SDS011;6877;51.436;6.774;2023-06-26T06:46:15;11.13;;;6.35;;
13611;SDS011;6877;51.436;6.774;2023-06-26T06:48:41;10.52;;;5.07;;
13611;SDS011;6877;51.436;6.774;2023-06-26T06:51:13;15.07;;;5.43;;
13611;SDS011;6877;51.436;6.774;2023-06-26T06:53:44;13.13;;;6.22;;
13611;SDS011;6877;51.436;6.774;2023-06-26T06:56:15;15.70;;;6.03;;
13611;SDS011;6877;51.436;6.774;2023-06-26T06:58:47;8.48;;;5.75;;
13611;SDS011;6877;51.436;6.774;2023-06-26T07:01:18;13.25;;;5.15;;
13611;SDS011;6877;51.436;6.774;2023-06-26T07:03:50;12.25;;;5.93;;
13611;SDS011;6877;51.436;6.774;2023-06-26T07:06:21;14.32;;;5.90;;
13611;SDS011;6877;51.436;6.774;2023-06-26T07:08:53;13.60;;;5.68;;
13611;SDS011;6877;51.436;6.774;2023-06-26T07:11:24;16.20;;;5.75;;
13611;SDS011;6877;51.436;6.774;2023-06-26T07:13:50;12.35;;;5.55;;
13611;SDS011;6877;51.436;6.774;2023-06-26T07:16:17;18.20;;;5.97;;
13611;SDS011;6877;51.436;6.774;2023-06-26T07:18:49;10.35;;;5.25;;
13611;SDS011;6877;51.436;6.774;2023-06-26T07:21:21;10.50;;;6.05;;
13611;SDS011;6877;51.436;6.774;2023-06-26T07:23:48;12.25;;;5.72;;
13611;SDS011;6877;51.436;6.774;2023-06-26T07:26:19;9.18;;;6.00;;
13611;SDS011;6877;51.436;6.774;2023-06-26T07:28:53;14.23;;;6.15;;
13611;SDS011;6877;51.436;6.774;2023-06-26T07:31:26;13.60;;;6.28;;
13611;SDS011;6877;51.436;6.774;2023-06-26T07:33:57;13.30;;;6.60;;
13611;SDS011;6877;51.436;6.774;2023-06-26T07:36:28;13.00;;;6.18;;
13611;SDS011;6877;51.436;6.774;2023-06-26T07:39:00;14.07;;;5.93;;
13611;SDS011;6877;51.436;6.774;2023-06-26T07:41:26;14.27;;;6.72;;
13611;SDS011;6877;51.436;6.774;2023-06-26T07:43:55;15.63;;;7.13;;
13611;SDS011;6877;51.436;6.774;2023-06-26T07:46:26;15.23;;;6.10;;
13611;SDS011;6877;51.436;6.774;2023-06-26T07:48:53;13.65;;;6.43;;
13611;SDS011;6877;51.436;6.774;2023-06-26T07:51:20;18.48;;;7.60;;
13611;SDS011;6877;51.436;6.774;2023-06-26T07:53:51;12.73;;;6.00;;
13611;SDS011;6877;51.436;6.774;2023-06-26T07:56:18;17.67;;;5.97;;
13611;SDS011;6877;51.436;6.774;2023-06-26T07:58:45;13.27;;;6.53;;
13611;SDS011;6877;51.436;6.774;2023-06-26T08:01:16;16.77;;;6.32;;
13611;SDS011;6877;51.436;6.774;2023-06-26T08:03:48;20.17;;;5.95;;
13611;SDS011;6877;51.436;6.774;2023-06-26T08:06:19;7.75;;;4.43;;
13611;SDS011;6877;51.436;6.774;2023-06-26T08:08:51;10.45;;;5.32;;
13611;SDS011;6877;51.436;6.774;2023-06-26T08:11:22;18.80;;;6.50;;
13611;SDS011;6877;51.436;6.774;2023-06-26T08:13:53;10.70;;;5.32;;
13611;SDS011;6877;51.436;6.774;2023-06-26T08:16:25;12.10;;;5.25;;
13611;SDS011;6877;51.436;6.774;2023-06-26T08:18:57;11.48;;;5.00;;
13611;SDS011;6877;51.436;6.774;2023-06-26T08:21:28;13.45;;;5.78;;
13611;SDS011;6877;51.436;6.774;2023-06-26T08:24:00;13.45;;;5.10;;
13611;SDS011;6877;51.436;6.774;2023-06-26T08:26:31;9.57;;;4.25;;
13611;SDS011;6877;51.436;6.774;2023-06-26T08:29:03;13.05;;;4.78;;
13611;SDS011;6877;51.436;6.774;2023-06-26T08:31:39;14.27;;;5.70;;
13611;SDS011;6877;51.436;6.774;2023-06-26T08:34:06;9.40;;;4.20;;
13611;SDS011;6877;51.436;6.774;2023-06-26T08:36:38;8.85;;;4.38;;
13611;SDS011;6877;51.436;6.774;2023-06-26T08:39:10;12.60;;;4.03;;
13611;SDS011;6877;51.436;6.774;2023-06-26T08:41:36;12.38;;;4.13;;
13611;SDS011;6877;51.436;6.774;2023-06-26T08:44:08;7.22;;;3.42;;
13611;SDS011;6877;51.436;6.774;2023-06-26T08:46:39;11.48;;;3.20;;
13611;SDS011;6877;51.436;6.774;2023-06-26T08:49:14;7.85;;;3.97;;
13611;SDS011;6877;51.436;6.774;2023-06-26T08:51:56;8.82;;;4.40;;
13611;SDS011;6877;51.436;6.774;2023-06-26T08:54:29;11.63;;;4.20;;
13611;SDS011;6877;51.436;6.774;2023-06-26T08:57:01;11.38;;;4.10;;
13611;SDS011;6877;51.436;6.774;2023-06-26T08:59:33;4.93;;;3.42;;
13611;SDS011;6877;51.436;6.774;2023-06-26T09:02:00;6.68;;;2.92;;
13611;SDS011;6877;51.436;6.774;2023-06-26T09:04:32;8.88;;;4.15;;
13611;SDS011;6877;51.436;6.774;2023-06-26T09:06:59;11.73;;;4.07;;
13611;SDS011;6877;51.436;6.774;2023-06-26T09:09:30;7.40;;;3.20;;
13611;SDS011;6877;51.436;6.774;2023-06-26T09:12:02;6.05;;;3.58;;
13611;SDS011;6877;51.436;6.774;2023-06-26T09:14:29;11.50;;;4.28;;
13611;SDS011;6877;51.436;6.774;2023-06-26T09:17:01;7.95;;;3.47;;
13611;SDS011;6877;51.436;6.774;2023-06-26T09:19:28;4.25;;;3.50;;
13611;SDS011;6877;51.436;6.774;2023-06-26T09:21:59;6.45;;;2.90;;
13611;SDS011;6877;51.436;6.774;2023-06-26T09:24:31;5.60;;;3.20;;
13611;SDS011;6877;51.436;6.774;2023-06-26T09:27:03;6.80;;;2.97;;
13611;SDS011;6877;51.436;6.774;2023-06-26T09:29:35;8.57;;;3.22;;
13611;SDS011;6877;51.436;6.774;2023-06-26T09:32:09;8.77;;;2.80;;
13611;SDS011;6877;51.436;6.774;2023-06-26T09:34:41;5.07;;;2.53;;
13611;SDS011;6877;51.436;6.774;2023-06-26T09:37:13;7.18;;;2.95;;
13611;SDS011;6877;51.436;6.774;2023-06-26T09:39:45;7.93;;;2.95;;
13611;SDS011;6877;51.436;6.774;2023-06-26T09:42:15;6.03;;;2.85;;
13611;SDS011;6877;51.436;6.774;2023-06-26T09:44:47;10.60;;;4.20;;
13611;SDS011;6877;51.436;6.774;2023-06-26T09:47:19;9.38;;;3.30;;
13611;SDS011;6877;51.436;6.774;2023-06-26T09:49:50;7.70;;;3.30;;
13611;SDS011;6877;51.436;6.774;2023-06-26T09:52:26;7.30;;;2.63;;
13611;SDS011;6877;51.436;6.774;2023-06-26T09:55:08;12.50;;;3.50;;
13611;SDS011;6877;51.436;6.774;2023-06-26T09:57:40;4.97;;;2.65;;
13611;SDS011;6877;51.436;6.774;2023-06-26T10:00:07;10.02;;;3.35;;
13611;SDS011;6877;51.436;6.774;2023-06-26T10:02:35;5.70;;;2.47;;
13611;SDS011;6877;51.436;6.774;2023-06-26T10:05:02;5.63;;;2.60;;
13611;SDS011;6877;51.436;6.774;2023-06-26T10:07:34;11.82;;;2.78;;
13611;SDS011;6877;51.436;6.774;2023-06-26T10:10:07;6.20;;;2.50;;
13611;SDS011;6877;51.436;6.774;2023-06-26T10:12:39;12.73;;;3.78;;
13611;SDS011;6877;51.436;6.774;2023-06-26T10:15:11;12.40;;;3.13;;
13611;SDS011;6877;51.436;6.774;2023-06-26T10:17:45;4.18;;;2.42;;
13611;SDS011;6877;51.436;6.774;2023-06-26T10:20:17;6.55;;;2.88;;
13611;SDS011;6877;51.436;6.774;2023-06-26T10:22:45;10.10;;;2.95;;
13611;SDS011;6877;51.436;6.774;2023-06-26T10:25:18;5.53;;;2.22;;
13611;SDS011;6877;51.436;6.774;2023-06-26T10:27:53;4.82;;;2.72;;
13611;SDS011;6877;51.436;6.774;2023-06-26T10:30:28;7.82;;;2.63;;
13611;SDS011;6877;51.436;6.774;2023-06-26T10:32:58;7.20;;;2.83;;
13611;SDS011;6877;51.436;6.774;2023-06-26T10:35:31;7.32;;;2.78;;
13611;SDS011;6877;51.436;6.774;2023-06-26T10:38:01;6.10;;;2.47;;
13611;SDS011;6877;51.436;6.774;2023-06-26T10:40:44;7.13;;;2.33;;
13611;SDS011;6877;51.436;6.774;2023-06-26T10:43:17;8.98;;;2.90;;
13611;SDS011;6877;51.436;6.774;2023-06-26T10:45:49;7.50;;;2.28;;
13611;SDS011;6877;51.436;6.774;2023-06-26T10:48:20;4.63;;;2.78;;
13611;SDS011;6877;51.436;6.774;2023-06-26T10:50:53;5.03;;;2.65;;
13611;SDS011;6877;51.436;6.774;2023-06-26T10:53:25;4.68;;;3.25;;
13611;SDS011;6877;51.436;6.774;2023-06-26T10:55:59;6.03;;;2.47;;
13611;SDS011;6877;51.436;6.774;2023-06-26T11:03:37;3.60;;;2.10;;
13611;SDS011;6877;51.436;6.774;2023-06-26T11:06:10;3.35;;;1.75;;
13611;SDS011;6877;51.436;6.774;2023-06-26T11:08:53;4.88;;;2.03;;
13611;SDS011;6877;51.436;6.774;2023-06-26T11:14:26;5.65;;;2.00;;
13611;SDS011;6877;51.436;6.774;2023-06-26T11:16:58;4.20;;;1.80;;
13611;SDS011;6877;51.436;6.774;2023-06-26T11:19:28;4.05;;;1.65;;
13611;SDS011;6877;51.436;6.774;2023-06-26T11:22:01;4.80;;;2.08;;
13611;SDS011;6877;51.436;6.774;2023-06-26T11:24:34;4.68;;;2.22;;
13611;SDS011;6877;51.436;6.774;2023-06-26T11:27:06;6.65;;;2.42;;
13611;SDS011;6877;51.436;6.774;2023-06-26T11:29:37;5.30;;;1.80;;
13611;SDS011;6877;51.436;6.774;2023-06-26T11:32:08;5.82;;;2.10;;
13611;SDS011;6877;51.436;6.774;2023-06-26T11:34:40;6.20;;;2.08;;
13611;SDS011;6877;51.436;6.774;2023-06-26T11:37:16;5.38;;;1.90;;
13611;SDS011;6877;51.436;6.774;2023-06-26T11:39:48;3.20;;;1.50;;
13611;SDS011;6877;51.436;6.774;2023-06-26T11:42:20;2.88;;;1.70;;
13611;SDS011;6877;51.436;6.774;2023-06-26T11:44:47;5.85;;;1.67;;
13611;SDS011;6877;51.436;6.774;2023-06-26T11:47:17;2.03;;;1.63;;
13611;SDS011;6877;51.436;6.774;2023-06-26T11:49:50;5.43;;;1.58;;
13611;SDS011;6877;51.436;6.774;2023-06-26T11:52:21;3.58;;;1.73;;
13611;SDS011;6877;51.436;6.774;2023-06-26T11:54:53;5.28;;;1.40;;
13611;SDS011;6877;51.436;6.774;2023-06-26T11:57:25;2.40;;;1.52;;
13611;SDS011;6877;51.436;6.774;2023-06-26T11:59:56;3.58;;;2.22;;
13611;SDS011;6877;51.436;6.774;2023-06-26T12:02:23;4.65;;;1.75;;
13611;SDS011;6877;51.436;6.774;2023-06-26T12:04:55;2.03;;;1.35;;
13611;SDS011;6877;51.436;6.774;2023-06-26T12:07:26;4.43;;;1.80;;
13611;SDS011;6877;51.436;6.774;2023-06-26T12:09:58;3.63;;;1.50;;
13611;SDS011;6877;51.436;6.774;2023-06-26T12:12:30;7.18;;;2.03;;
13611;SDS011;6877;51.436;6.774;2023-06-26T12:15:02;4.53;;;1.23;;
13611;SDS011;6877;51.436;6.774;2023-06-26T12:17:37;8.27;;;1.30;;
13611;SDS011;6877;51.436;6.774;2023-06-26T12:20:18;6.85;;;1.45;;
13611;SDS011;6877;51.436;6.774;2023-06-26T12:22:47;5.38;;;1.48;;
13611;SDS011;6877;51.436;6.774;2023-06-26T12:25:22;2.15;;;1.33;;
13611;SDS011;6877;51.436;6.774;2023-06-26T12:27:54;8.43;;;1.95;;
13611;SDS011;6877;51.436;6.774;2023-06-26T12:30:25;3.67;;;1.70;;
13611;SDS011;6877;51.436;6.774;2023-06-26T12:32:57;11.02;;;1.70;;
13611;SDS011;6877;51.436;6.774;2023-06-26T12:35:28;3.58;;;1.27;;
13611;SDS011;6877;51.436;6.774;2023-06-26T12:37:55;4.38;;;1.98;;
13611;SDS011;6877;51.436;6.774;2023-06-26T12:40:21;5.32;;;1.38;;
13611;SDS011;6877;51.436;6.774;2023-06-26T12:42:53;4.00;;;1.65;;
13611;SDS011;6877;51.436;6.774;2023-06-26T12:45:21;4.45;;;1.40;;
13611;SDS011;6877;51.436;6.774;2023-06-26T12:47:53;3.58;;;1.27;;
13611;SDS011;6877;51.436;6.774;2023-06-26T12:50:19;10.70;;;1.60;;
13611;SDS011;6877;51.436;6.774;2023-06-26T12:52:51;7.32;;;1.73;;
13611;SDS011;6877;51.436;6.774;2023-06-26T12:55:22;3.80;;;1.13;;
13611;SDS011;6877;51.436;6.774;2023-06-26T12:57:54;5.75;;;1.30;;
13611;SDS011;6877;51.436;6.774;2023-06-26T13:00:25;5.38;;;1.20;;
13611;SDS011;6877;51.436;6.774;2023-06-26T13:02:52;2.92;;;1.30;;
13611;SDS011;6877;51.436;6.774;2023-06-26T13:05:19;1.85;;;1.10;;
13611;SDS011;6877;51.436;6.774;2023-06-26T13:07:45;5.47;;;1.48;;
13611;SDS011;6877;51.436;6.774;2023-06-26T13:10:16;9.85;;;1.63;;
13611;SDS011;6877;51.436;6.774;2023-06-26T13:12:48;2.47;;;1.60;;
13611;SDS011;6877;51.436;6.774;2023-06-26T13:15:14;13.43;;;1.30;;
13611;SDS011;6877;51.436;6.774;2023-06-26T13:17:46;4.00;;;1.60;;
13611;SDS011;6877;51.436;6.774;2023-06-26T13:20:12;2.90;;;1.13;;
13611;SDS011;6877;51.436;6.774;2023-06-26T13:22:45;4.15;;;1.50;;
13611;SDS011;6877;51.436;6.774;2023-06-26T13:25:12;5.97;;;1.33;;
13611;SDS011;6877;51.436;6.774;2023-06-26T13:27:38;3.15;;;1.40;;
13611;SDS011;6877;51.436;6.774;2023-06-26T13:30:05;4.32;;;1.50;;
13611;SDS011;6877;51.436;6.774;2023-06-26T13:32:32;6.15;;;1.52;;
13611;SDS011;6877;51.436;6.774;2023-06-26T13:35:04;6.68;;;2.03;;
13611;SDS011;6877;51.436;6.774;2023-06-26T13:37:31;5.78;;;1.45;;
13611;SDS011;6877;51.436;6.774;2023-06-26T13:40:05;4.75;;;1.33;;
13611;SDS011;6877;51.436;6.774;2023-06-26T13:42:38;2.25;;;1.23;;
13611;SDS011;6877;51.436;6.774;2023-06-26T13:45:10;6.03;;;1.83;;
13611;SDS011;6877;51.436;6.774;2023-06-26T13:47:42;6.55;;;1.38;;
13611;SDS011;6877;51.436;6.774;2023-06-26T13:50:14;3.72;;;1.42;;
13611;SDS011;6877;51.436;6.774;2023-06-26T13:52:45;2.92;;;1.40;;
13611;SDS011;6877;51.436;6.774;2023-06-26T13:55:17;4.05;;;1.25;;
13611;SDS011;6877;51.436;6.774;2023-06-26T13:57:48;5.72;;;1.52;;
13611;SDS011;6877;51.436;6.774;2023-06-26T14:00:15;5.97;;;1.70;;
13611;SDS011;6877;51.436;6.774;2023-06-26T14:02:51;4.85;;;2.17;;
13611;SDS011;6877;51.436;6.774;2023-06-26T14:05:22;6.18;;;1.30;;
13611;SDS011;6877;51.436;6.774;2023-06-26T14:07:54;2.75;;;1.30;;
13611;SDS011;6877;51.436;6.774;2023-06-26T14:10:26;4.35;;;1.45;;
13611;SDS011;6877;51.436;6.774;2023-06-26T14:12:57;5.22;;;1.60;;
13611;SDS011;6877;51.436;6.774;2023-06-26T14:15:23;5.13;;;1.35;;
13611;SDS011;6877;51.436;6.774;2023-06-26T14:17:56;2.88;;;1.35;;
13611;SDS011;6877;51.436;6.774;2023-06-26T14:20:23;1.85;;;1.20;;
13611;SDS011;6877;51.436;6.774;2023-06-26T14:22:55;2.08;;;1.35;;
13611;SDS011;6877;51.436;6.774;2023-06-26T14:25:27;6.30;;;1.38;;
13611;SDS011;6877;51.436;6.774;2023-06-26T14:27:59;2.90;;;1.20;;
13611;SDS011;6877;51.436;6.774;2023-06-26T14:30:25;4.32;;;1.27;;
13611;SDS011;6877;51.436;6.774;2023-06-26T14:32:56;4.00;;;1.52;;
13611;SDS011;6877;51.436;6.774;2023-06-26T14:35:28;1.38;;;1.15;;
13611;SDS011;6877;51.436;6.774;2023-06-26T14:37:55;4.95;;;1.95;;
13611;SDS011;6877;51.436;6.774;2023-06-26T14:40:28;1.98;;;1.30;;
13611;SDS011;6877;51.436;6.774;2023-06-26T14:42:54;3.47;;;1.30;;
13611;SDS011;6877;51.436;6.774;2023-06-26T14:45:21;3.05;;;1.63;;
13611;SDS011;6877;51.436;6.774;2023-06-26T14:47:52;2.92;;;1.35;;
13611;SDS011;6877;51.436;6.774;2023-06-26T14:50:19;2.88;;;1.15;;
13611;SDS011;6877;51.436;6.774;2023-06-26T14:52:50;2.17;;;1.17;;
13611;SDS011;6877;51.436;6.774;2023-06-26T14:55:17;2.08;;;1.13;;
13611;SDS011;6877;51.436;6.774;2023-06-26T14:57:48;7.57;;;1.20;;
13611;SDS011;6877;51.436;6.774;2023-06-26T15:00:15;2.28;;;1.40;;
13611;SDS011;6877;51.436;6.774;2023-06-26T15:02:47;4.63;;;1.00;;
13611;SDS011;6877;51.436;6.774;2023-06-26T15:05:19;5.20;;;1.50;;
13611;SDS011;6877;51.436;6.774;2023-06-26T15:07:52;4.82;;;1.45;;
13611;SDS011;6877;51.436;6.774;2023-06-26T15:10:23;4.60;;;2.08;;
13611;SDS011;6877;51.436;6.774;2023-06-26T15:12:55;5.93;;;1.80;;
13611;SDS011;6877;51.436;6.774;2023-06-26T15:15:26;6.07;;;1.50;;
13611;SDS011;6877;51.436;6.774;2023-06-26T15:17:55;1.90;;;1.30;;
13611;SDS011;6877;51.436;6.774;2023-06-26T15:20:30;3.28;;;1.60;;
13611;SDS011;6877;51.436;6.774;2023-06-26T15:23:01;6.45;;;1.58;;
13611;SDS011;6877;51.436;6.774;2023-06-26T15:25:33;2.80;;;1.45;;
13611;SDS011;6877;51.436;6.774;2023-06-26T15:28:07;1.20;;;1.10;;